Time;durP1;ratioP1;P1;durP2;ratioP2;P2;SDS_P1;SDS_P2;PMS_P1;PMS_P2;Temp;Humidity;BMP_temperature;BMP_pressure;BME280_temperature;BME280_humidity;BME280_pressure;Samples;Min_cycle;Max_cycle;Signal;HPM_P1;HPM_P2
2022/10/26 00:02:16;;;;;;;33.67;15.70;;;;;;;;;;4917892;29;20058;-74
2022/10/26 00:04:42;;;;;;;30.50;15.30;;;;;;;;;;4918181;29;20059;-74
2022/10/26 00:07:09;;;;;;;29.42;15.48;;;;;;;;;;4921735;29;20043;-74
2022/10/26 00:09:35;;;;;;;30.58;15.32;;;;;;;;;;4922112;29;20175;-74
2022/10/26 00:12:01;;;;;;;27.48;15.90;;;;;;;;;;4921749;29;20072;-74
2022/10/26 00:14:27;;;;;;;43.67;17.35;;;;;;;;;;4921915;29;20058;-74
2022/10/26 00:16:53;;;;;;;33.63;15.98;;;;;;;;;;4921816;29;20047;-74
2022/10/26 00:19:20;;;;;;;39.88;16.38;;;;;;;;;;4921290;29;20504;-74
2022/10/26 00:21:46;;;;;;;43.78;16.15;;;;;;;;;;4921139;29;20040;-74
2022/10/26 00:24:12;;;;;;;31.77;14.32;;;;;;;;;;4921300;29;20071;-74
2022/10/26 00:26:38;;;;;;;30.23;13.68;;;;;;;;;;4921152;29;20119;-74
2022/10/26 00:29:05;;;;;;;28.85;13.68;;;;;;;;;;4921480;29;20047;-74
2022/10/26 00:31:31;;;;;;;30.70;14.82;;;;;;;;;;4921289;29;20074;-74
2022/10/26 00:33:57;;;;;;;28.15;15.57;;;;;;;;;;4920800;29;20377;-74
2022/10/26 00:36:24;;;;;;;27.20;14.30;;;;;;;;;;4920944;29;20040;-74
2022/10/26 00:38:54;;;;;;;31.48;14.48;;;;;;;;;;4921108;29;20056;-74
2022/10/26 00:41:22;;;;;;;33.65;14.50;;;;;;;;;;4921106;29;20056;-74
2022/10/26 00:43:48;;;;;;;24.20;13.23;;;;;;;;;;4921100;29;20495;-74
2022/10/26 00:46:35;;;;;;;32.00;14.35;;;;;;;;;;4921417;29;20051;-74
2022/10/26 00:49:03;;;;;;;24.80;14.55;;;;;;;;;;4921090;29;20531;-74
2022/10/26 00:51:39;;;;;;;34.20;14.60;;;;;;;;;;4920889;29;20044;-74
2022/10/26 00:54:06;;;;;;;30.50;15.80;;;;;;;;;;4921079;29;20099;-74
2022/10/26 00:56:33;;;;;;;31.17;14.02;;;;;;;;;;4920960;29;20040;-74
2022/10/26 00:59:01;;;;;;;32.83;15.20;;;;;;;;;;4921077;29;20047;-75
2022/10/26 01:01:28;;;;;;;27.75;14.02;;;;;;;;;;4921110;29;20048;-74
2022/10/26 01:03:55;;;;;;;26.08;14.88;;;;;;;;;;4920830;29;20048;-74
2022/10/26 01:06:21;;;;;;;33.80;15.38;;;;;;;;;;4921004;29;20072;-74
2022/10/26 01:08:48;;;;;;;31.60;14.80;;;;;;;;;;4921109;29;20131;-74
2022/10/26 01:11:14;;;;;;;34.17;15.60;;;;;;;;;;4920468;29;20071;-74
2022/10/26 01:13:41;;;;;;;33.05;14.93;;;;;;;;;;4923080;29;20047;-74
2022/10/26 01:16:13;;;;;;;25.58;13.80;;;;;;;;;;4939305;29;20092;-74
2022/10/26 01:18:45;;;;;;;27.08;13.70;;;;;;;;;;4940068;29;20046;-73
2022/10/26 01:21:20;;;;;;;29.92;13.85;;;;;;;;;;4940093;29;20078;-74
2022/10/26 01:23:52;;;;;;;28.20;15.10;;;;;;;;;;4938243;29;20507;-73
2022/10/26 01:26:45;;;;;;;23.10;15.27;;;;;;;;;;4939859;29;20078;-73
2022/10/26 01:29:12;;;;;;;28.90;15.13;;;;;;;;;;4939982;29;20123;-73
2022/10/26 01:31:50;;;;;;;26.00;14.95;;;;;;;;;;4939684;29;20131;-74
2022/10/26 01:34:36;;;;;;;32.35;16.67;;;;;;;;;;4940183;29;20107;-73
2022/10/26 01:37:13;;;;;;;33.28;18.33;;;;;;;;;;4939970;29;20094;-73
2022/10/26 01:39:52;;;;;;;33.15;15.93;;;;;;;;;;4939320;29;20380;-73
2022/10/26 01:42:19;;;;;;;38.35;17.42;;;;;;;;;;4940478;29;20056;-73
2022/10/26 01:44:47;;;;;;;33.70;16.85;;;;;;;;;;4939669;29;20043;-73
2022/10/26 01:47:15;;;;;;;29.90;15.10;;;;;;;;;;4939791;29;20044;-73
2022/10/26 01:49:43;;;;;;;28.33;15.27;;;;;;;;;;4939803;29;20040;-73
2022/10/26 01:52:10;;;;;;;26.27;15.05;;;;;;;;;;4939480;29;20052;-73
2022/10/26 01:54:37;;;;;;;25.13;14.55;;;;;;;;;;4939541;29;20062;-73
2022/10/26 01:57:04;;;;;;;29.50;15.00;;;;;;;;;;4939844;29;20051;-73
2022/10/26 01:59:49;;;;;;;34.20;15.93;;;;;;;;;;4939140;29;20043;-74
2022/10/26 02:02:28;;;;;;;39.05;16.25;;;;;;;;;;4937843;29;20044;-73
2022/10/26 02:04:56;;;;;;;30.83;14.70;;;;;;;;;;4938465;29;20040;-73
2022/10/26 02:07:49;;;;;;;42.03;16.02;;;;;;;;;;4938716;29;20121;-73
2022/10/26 02:10:21;;;;;;;37.10;15.45;;;;;;;;;;4935526;29;20047;-73
2022/10/26 02:12:47;;;;;;;42.90;17.42;;;;;;;;;;4938206;29;20039;-73
2022/10/26 02:15:16;;;;;;;49.90;17.90;;;;;;;;;;4938844;29;20570;-73
2022/10/26 02:17:48;;;;;;;59.28;18.95;;;;;;;;;;4939373;29;20044;-73
2022/10/26 02:20:18;;;;;;;55.42;17.77;;;;;;;;;;4939133;29;20502;-73
2022/10/26 02:22:50;;;;;;;41.22;16.75;;;;;;;;;;4938984;29;20047;-73
2022/10/26 02:25:25;;;;;;;32.75;16.90;;;;;;;;;;4938460;29;20051;-73
2022/10/26 02:27:55;;;;;;;31.42;14.10;;;;;;;;;;4938650;29;20044;-73
2022/10/26 02:30:21;;;;;;;32.72;14.93;;;;;;;;;;4938961;29;20181;-73
2022/10/26 02:32:52;;;;;;;23.38;14.20;;;;;;;;;;4938817;29;20039;-73
2022/10/26 02:35:20;;;;;;;28.02;13.38;;;;;;;;;;4938713;29;20056;-73
2022/10/26 02:37:47;;;;;;;26.63;14.48;;;;;;;;;;4937443;29;20391;-73
2022/10/26 02:40:16;;;;;;;31.40;13.80;;;;;;;;;;4938119;29;20051;-73
2022/10/26 02:42:43;;;;;;;21.98;13.40;;;;;;;;;;4938402;29;20044;-73
2022/10/26 02:45:11;;;;;;;33.40;14.07;;;;;;;;;;4937992;29;20051;-73
2022/10/26 02:47:38;;;;;;;29.95;15.15;;;;;;;;;;4938291;29;20054;-73
2022/10/26 02:50:04;;;;;;;62.22;14.90;;;;;;;;;;4938086;29;20044;-73
2022/10/26 02:52:37;;;;;;;30.05;13.70;;;;;;;;;;4938155;29;20102;-73
2022/10/26 02:55:07;;;;;;;38.00;15.43;;;;;;;;;;4937799;29;20082;-73
2022/10/26 02:57:39;;;;;;;38.92;14.88;;;;;;;;;;4938114;29;20048;-73
2022/10/26 03:00:16;;;;;;;35.42;14.15;;;;;;;;;;4938223;29;20047;-73
2022/10/26 03:02:42;;;;;;;25.13;14.15;;;;;;;;;;4938321;29;20523;-73
2022/10/26 03:05:12;;;;;;;29.25;14.27;;;;;;;;;;4937644;29;20047;-73
2022/10/26 03:07:38;;;;;;;31.17;14.35;;;;;;;;;;4937914;29;20047;-73
2022/10/26 03:10:05;;;;;;;49.83;14.98;;;;;;;;;;4937879;29;20044;-73
2022/10/26 03:12:31;;;;;;;36.67;14.60;;;;;;;;;;4938367;29;20078;-73
2022/10/26 03:14:57;;;;;;;38.47;13.95;;;;;;;;;;4937707;29;20098;-73
2022/10/26 03:17:23;;;;;;;43.00;14.77;;;;;;;;;;4937956;29;20043;-73
2022/10/26 03:19:49;;;;;;;53.67;16.23;;;;;;;;;;4937949;29;20119;-73
2022/10/26 03:22:15;;;;;;;38.80;14.45;;;;;;;;;;4937898;29;20054;-73
2022/10/26 03:24:41;;;;;;;39.97;15.27;;;;;;;;;;4937211;29;20074;-73
2022/10/26 03:27:08;;;;;;;44.20;15.18;;;;;;;;;;4937885;29;20048;-73
2022/10/26 03:29:34;;;;;;;42.65;15.30;;;;;;;;;;4937878;29;20048;-73
2022/10/26 03:32:00;;;;;;;30.67;16.35;;;;;;;;;;4937892;29;20079;-73
2022/10/26 03:34:26;;;;;;;25.85;13.93;;;;;;;;;;4937397;29;20502;-73
2022/10/26 03:36:52;;;;;;;23.25;12.90;;;;;;;;;;4937475;29;20046;-73
2022/10/26 03:39:18;;;;;;;27.25;13.48;;;;;;;;;;4937237;29;20048;-73
2022/10/26 03:41:44;;;;;;;26.67;12.52;;;;;;;;;;4937549;29;20058;-73
2022/10/26 03:44:10;;;;;;;21.50;13.05;;;;;;;;;;4938018;29;20491;-73
2022/10/26 03:46:37;;;;;;;20.90;12.85;;;;;;;;;;4937415;29;20050;-73
2022/10/26 03:49:03;;;;;;;24.67;12.68;;;;;;;;;;4936968;29;20509;-73
2022/10/26 03:51:29;;;;;;;27.05;13.10;;;;;;;;;;4937587;29;20035;-73
2022/10/26 03:53:55;;;;;;;28.50;13.90;;;;;;;;;;4937578;29;20051;-73
2022/10/26 03:56:21;;;;;;;25.92;12.45;;;;;;;;;;4936076;29;20463;-73
2022/10/26 03:58:47;;;;;;;24.90;13.63;;;;;;;;;;4937482;29;20086;-73
2022/10/26 04:01:13;;;;;;;23.98;12.48;;;;;;;;;;4937235;29;20412;-73
2022/10/26 04:03:40;;;;;;;31.30;12.40;;;;;;;;;;4937196;29;20050;-73
2022/10/26 04:06:06;;;;;;;30.83;11.73;;;;;;;;;;4937202;29;20059;-73
2022/10/26 04:08:32;;;;;;;29.25;13.02;;;;;;;;;;4937477;29;20079;-73
2022/10/26 04:10:58;;;;;;;22.35;12.30;;;;;;;;;;4937041;29;20095;-73
2022/10/26 04:13:24;;;;;;;22.77;11.60;;;;;;;;;;4937650;29;20484;-73
2022/10/26 04:15:50;;;;;;;29.70;12.50;;;;;;;;;;4937035;29;20051;-73
2022/10/26 04:18:17;;;;;;;32.22;11.90;;;;;;;;;;4937940;29;20056;-73
2022/10/26 04:20:43;;;;;;;25.85;11.85;;;;;;;;;;4937077;29;20044;-73
2022/10/26 04:23:11;;;;;;;27.45;13.10;;;;;;;;;;4937355;29;20487;-73
2022/10/26 04:25:37;;;;;;;20.48;11.23;;;;;;;;;;4937152;29;20054;-73
2022/10/26 04:28:04;;;;;;;20.33;11.38;;;;;;;;;;4937020;29;20091;-73
2022/10/26 04:30:31;;;;;;;22.48;11.75;;;;;;;;;;4937325;29;20047;-73
2022/10/26 04:32:57;;;;;;;23.85;10.52;;;;;;;;;;4937186;29;20036;-73
2022/10/26 04:35:23;;;;;;;23.58;11.70;;;;;;;;;;4937163;29;20052;-73
2022/10/26 04:37:49;;;;;;;30.20;11.05;;;;;;;;;;4937211;29;20514;-73
2022/10/26 04:40:16;;;;;;;23.88;11.10;;;;;;;;;;4936959;29;20040;-73
2022/10/26 04:42:45;;;;;;;58.58;12.43;;;;;;;;;;4937432;29;20042;-73
2022/10/26 04:45:12;;;;;;;74.85;12.50;;;;;;;;;;4936908;29;20043;-73
2022/10/26 04:47:39;;;;;;;66.70;12.18;;;;;;;;;;4937109;29;20043;-73
2022/10/26 04:50:05;;;;;;;82.05;12.70;;;;;;;;;;4937260;29;20040;-73
2022/10/26 04:52:31;;;;;;;60.22;13.40;;;;;;;;;;4940286;29;20487;-73
2022/10/26 04:54:57;;;;;;;90.25;14.23;;;;;;;;;;4940353;29;20043;-74
2022/10/26 04:57:23;;;;;;;66.03;13.15;;;;;;;;;;4940236;29;20440;-73
2022/10/26 04:59:50;;;;;;;36.28;14.25;;;;;;;;;;4940209;29;20500;-73
2022/10/26 05:02:16;;;;;;;20.02;13.30;;;;;;;;;;4940241;29;20142;-73
2022/10/26 05:04:42;;;;;;;28.92;14.40;;;;;;;;;;4940391;29;20503;-73
2022/10/26 05:07:08;;;;;;;24.65;14.20;;;;;;;;;;4940533;29;20049;-73
2022/10/26 05:09:34;;;;;;;29.08;14.60;;;;;;;;;;4939963;29;20048;-73
2022/10/26 05:12:00;;;;;;;36.13;14.20;;;;;;;;;;4940067;29;20063;-73
2022/10/26 05:14:26;;;;;;;35.17;14.40;;;;;;;;;;4940040;29;20052;-73
2022/10/26 05:16:54;;;;;;;26.27;13.45;;;;;;;;;;4940253;29;20131;-73
2022/10/26 05:19:21;;;;;;;32.65;13.07;;;;;;;;;;4940188;29;20040;-73
2022/10/26 05:21:47;;;;;;;31.65;13.52;;;;;;;;;;4940393;29;20044;-73
2022/10/26 05:24:13;;;;;;;20.88;12.07;;;;;;;;;;4940248;29;20086;-74
2022/10/26 05:26:39;;;;;;;23.23;12.13;;;;;;;;;;4940066;29;20044;-73
2022/10/26 05:29:06;;;;;;;26.00;12.10;;;;;;;;;;4940432;29;20048;-73
2022/10/26 05:31:33;;;;;;;21.33;11.95;;;;;;;;;;4940258;29;20040;-73
2022/10/26 05:33:59;;;;;;;19.40;11.45;;;;;;;;;;4939933;29;20123;-73
2022/10/26 05:36:25;;;;;;;17.42;11.25;;;;;;;;;;4939544;29;20063;-73
2022/10/26 05:38:51;;;;;;;17.15;11.65;;;;;;;;;;4939807;29;20048;-73
2022/10/26 05:41:17;;;;;;;19.13;10.35;;;;;;;;;;4931852;29;20519;-73
2022/10/26 05:43:43;;;;;;;20.40;10.95;;;;;;;;;;4916828;29;20048;-73
2022/10/26 05:46:09;;;;;;;20.85;10.80;;;;;;;;;;4912716;29;20533;-73
2022/10/26 05:48:35;;;;;;;16.75;10.13;;;;;;;;;;4917639;29;20047;-73
2022/10/26 05:51:01;;;;;;;19.75;9.68;;;;;;;;;;4916075;29;20068;-74
2022/10/26 05:53:28;;;;;;;14.90;9.23;;;;;;;;;;4919114;29;20060;-73
2022/10/26 05:55:55;;;;;;;13.13;8.55;;;;;;;;;;4919038;29;20091;-73
2022/10/26 05:58:21;;;;;;;11.02;7.90;;;;;;;;;;4919211;29;20048;-73
2022/10/26 06:01:06;;;;;;;16.13;8.75;;;;;;;;;;4919512;29;20044;-73
2022/10/26 06:03:38;;;;;;;13.52;8.18;;;;;;;;;;4917167;29;20043;-73
2022/10/26 06:06:04;;;;;;;13.82;8.27;;;;;;;;;;4900978;29;20055;-73
2022/10/26 06:08:31;;;;;;;17.88;9.18;;;;;;;;;;4901324;29;20044;-74
2022/10/26 06:11:01;;;;;;;13.60;8.05;;;;;;;;;;4900908;29;20048;-75
2022/10/26 06:13:27;;;;;;;20.40;8.77;;;;;;;;;;4901834;29;20041;-74
2022/10/26 06:16:17;;;;;;;13.73;8.50;;;;;;;;;;4901237;29;20052;-75
2022/10/26 06:18:49;;;;;;;18.27;8.75;;;;;;;;;;4896163;29;20099;-75
2022/10/26 06:21:21;;;;;;;14.05;9.15;;;;;;;;;;4899379;29;20080;-74
2022/10/26 06:24:06;;;;;;;20.77;8.40;;;;;;;;;;4900541;29;20040;-74
2022/10/26 06:26:57;;;;;;;19.50;7.85;;;;;;;;;;4900806;29;20128;-74
2022/10/26 06:29:55;;;;;;;15.63;8.38;;;;;;;;;;4900992;29;20051;-74
2022/10/26 06:32:25;;;;;;;16.00;8.82;;;;;;;;;;4889051;29;20370;-74
2022/10/26 06:34:53;;;;;;;13.40;7.70;;;;;;;;;;4914801;29;20053;-74
2022/10/26 06:37:20;;;;;;;14.00;8.20;;;;;;;;;;4900616;29;20500;-74
2022/10/26 06:39:49;;;;;;;13.27;7.70;;;;;;;;;;4900142;29;20497;-74
2022/10/26 06:42:15;;;;;;;16.90;8.27;;;;;;;;;;4900069;29;20068;-74
2022/10/26 06:44:41;;;;;;;12.20;7.78;;;;;;;;;;4900165;29;20052;-74
2022/10/26 06:47:32;;;;;;;14.20;7.30;;;;;;;;;;4900143;29;20073;-74
2022/10/26 06:49:58;;;;;;;15.88;7.90;;;;;;;;;;4900322;29;20085;-74
2022/10/26 06:52:34;;;;;;;15.50;7.65;;;;;;;;;;4900280;29;20044;-74
2022/10/26 06:55:00;;;;;;;15.35;7.78;;;;;;;;;;4900076;29;20215;-74
2022/10/26 06:57:32;;;;;;;17.77;8.63;;;;;;;;;;4900246;29;20554;-74
2022/10/26 06:59:59;;;;;;;18.67;8.27;;;;;;;;;;4900382;29;20123;-74
2022/10/26 07:02:26;;;;;;;14.13;7.05;;;;;;;;;;4900119;29;20081;-74
2022/10/26 07:04:52;;;;;;;13.93;8.02;;;;;;;;;;4900197;29;20044;-74
2022/10/26 07:07:19;;;;;;;19.15;7.93;;;;;;;;;;4900617;29;20101;-74
2022/10/26 07:09:46;;;;;;;17.95;7.60;;;;;;;;;;4915656;29;20497;-74
2022/10/26 07:12:12;;;;;;;11.77;7.05;;;;;;;;;;4918250;29;20040;-74
2022/10/26 07:14:38;;;;;;;16.45;7.80;;;;;;;;;;4916802;29;20048;-74
2022/10/26 07:17:05;;;;;;;19.05;8.25;;;;;;;;;;4918459;29;20032;-74
2022/10/26 07:19:31;;;;;;;13.73;7.75;;;;;;;;;;4917342;29;20110;-75
2022/10/26 07:22:00;;;;;;;15.77;8.20;;;;;;;;;;4927424;29;20122;-74
2022/10/26 07:24:30;;;;;;;17.05;7.68;;;;;;;;;;4937520;29;20071;-74
2022/10/26 07:26:56;;;;;;;12.23;8.43;;;;;;;;;;4920752;29;20119;-74
2022/10/26 07:29:23;;;;;;;14.60;8.15;;;;;;;;;;4918874;29;20071;-74
2022/10/26 07:31:49;;;;;;;14.40;7.43;;;;;;;;;;4918345;29;20122;-74
2022/10/26 07:34:15;;;;;;;14.18;7.18;;;;;;;;;;4918438;29;20048;-74
2022/10/26 07:36:42;;;;;;;14.98;7.35;;;;;;;;;;4917682;29;20051;-75
2022/10/26 07:39:08;;;;;;;11.80;7.38;;;;;;;;;;4918438;29;20127;-75
2022/10/26 07:41:34;;;;;;;16.50;7.85;;;;;;;;;;4917259;29;20048;-74
2022/10/26 07:44:01;;;;;;;12.95;7.18;;;;;;;;;;4917978;29;20047;-74
2022/10/26 07:46:27;;;;;;;13.40;6.88;;;;;;;;;;4916957;29;20075;-75
2022/10/26 07:48:53;;;;;;;20.02;7.55;;;;;;;;;;4918093;29;20182;-76
2022/10/26 07:51:19;;;;;;;15.50;7.93;;;;;;;;;;4922043;29;20043;-80
2022/10/26 07:53:45;;;;;;;13.13;7.38;;;;;;;;;;4937497;29;20031;-76
2022/10/26 07:56:12;;;;;;;20.15;7.30;;;;;;;;;;4924978;29;20052;-79
2022/10/26 07:58:38;;;;;;;20.23;7.03;;;;;;;;;;4918143;29;20096;-77
2022/10/26 08:01:09;;;;;;;15.75;6.28;;;;;;;;;;4918182;29;20067;-76
2022/10/26 08:03:35;;;;;;;13.43;7.15;;;;;;;;;;4916757;29;20036;-76
2022/10/26 08:06:03;;;;;;;15.18;7.18;;;;;;;;;;4917807;29;20058;-76
2022/10/26 08:08:29;;;;;;;21.20;7.30;;;;;;;;;;4917865;29;20066;-77
2022/10/26 08:10:55;;;;;;;13.35;7.05;;;;;;;;;;4917752;29;20067;-76
2022/10/26 08:13:21;;;;;;;12.40;7.28;;;;;;;;;;4917824;29;20126;-77
2022/10/26 08:15:47;;;;;;;14.02;6.75;;;;;;;;;;4918064;29;20048;-76
2022/10/26 08:18:13;;;;;;;15.93;7.50;;;;;;;;;;4918106;29;20099;-76
2022/10/26 08:20:39;;;;;;;13.57;6.78;;;;;;;;;;4917768;29;20131;-76
2022/10/26 08:23:07;;;;;;;13.68;6.68;;;;;;;;;;4918062;29;20096;-77
2022/10/26 08:25:33;;;;;;;12.00;6.28;;;;;;;;;;4917594;29;20040;-76
2022/10/26 08:28:03;;;;;;;15.40;7.95;;;;;;;;;;4921512;29;20124;-76
2022/10/26 08:30:32;;;;;;;17.70;7.15;;;;;;;;;;4921568;29;20052;-76
2022/10/26 08:32:59;;;;;;;14.45;7.38;;;;;;;;;;4920747;29;20040;-76
2022/10/26 08:35:25;;;;;;;12.48;6.50;;;;;;;;;;4921328;29;20464;-77
2022/10/26 08:37:52;;;;;;;19.05;7.55;;;;;;;;;;4921629;29;20035;-76
2022/10/26 08:40:20;;;;;;;15.20;7.07;;;;;;;;;;4921434;29;20123;-77
2022/10/26 08:42:49;;;;;;;17.52;6.82;;;;;;;;;;4921854;29;20499;-76
2022/10/26 08:45:24;;;;;;;14.60;6.18;;;;;;;;;;4921397;29;20051;-77
2022/10/26 08:47:53;;;;;;;16.40;6.65;;;;;;;;;;4932208;29;20047;-78
2022/10/26 08:50:26;;;;;;;17.17;6.40;;;;;;;;;;4921299;29;20040;-74
2022/10/26 08:53:02;;;;;;;14.23;5.95;;;;;;;;;;4921490;29;20052;-74
2022/10/26 08:55:32;;;;;;;13.95;6.53;;;;;;;;;;4920955;29;20056;-77
2022/10/26 08:58:00;;;;;;;12.65;6.60;;;;;;;;;;4920709;29;20048;-76
2022/10/26 09:00:29;;;;;;;15.95;6.85;;;;;;;;;;4922057;29;20055;-78
2022/10/26 09:02:55;;;;;;;19.60;7.25;;;;;;;;;;4921195;29;20095;-77
2022/10/26 09:05:38;;;;;;;12.52;6.28;;;;;;;;;;4921466;29;20052;-77
2022/10/26 09:08:14;;;;;;;13.75;6.68;;;;;;;;;;4920579;29;20052;-77
2022/10/26 09:11:03;;;;;;;14.73;6.35;;;;;;;;;;4920872;29;20115;-77
2022/10/26 09:13:29;;;;;;;13.65;6.05;;;;;;;;;;4921617;29;20048;-77
2022/10/26 09:16:04;;;;;;;11.05;6.50;;;;;;;;;;4921088;29;20052;-77
2022/10/26 09:18:37;;;;;;;16.20;6.57;;;;;;;;;;4921248;29;20051;-77
2022/10/26 09:21:03;;;;;;;50.47;39.90;;;;;;;;;;4918997;29;20476;-77
2022/10/26 09:23:29;;;;;;;15.32;10.65;;;;;;;;;;4902203;29;20075;-77
2022/10/26 09:25:59;;;;;;;17.70;11.07;;;;;;;;;;4902187;29;20048;-77
2022/10/26 09:28:26;;;;;;;20.02;12.85;;;;;;;;;;4902800;29;20065;-77
2022/10/26 09:30:53;;;;;;;28.92;17.95;;;;;;;;;;4902130;29;20040;-77
2022/10/26 09:33:23;;;;;;;24.65;14.88;;;;;;;;;;4902589;29;20049;-77
2022/10/26 09:35:51;;;;;;;28.67;14.32;;;;;;;;;;4902190;29;20048;-77
2022/10/26 09:38:37;;;;;;;29.02;15.25;;;;;;;;;;4900772;29;20536;-77
2022/10/26 09:41:06;;;;;;;22.58;9.98;;;;;;;;;;4890958;29;20063;-77
2022/10/26 09:43:35;;;;;;;18.15;9.00;;;;;;;;;;4901868;29;20068;-77
2022/10/26 09:46:01;;;;;;;19.00;11.48;;;;;;;;;;4901901;29;20476;-78
2022/10/26 09:48:33;;;;;;;21.75;10.10;;;;;;;;;;4901811;29;20496;-77
2022/10/26 09:50:59;;;;;;;29.63;12.95;;;;;;;;;;4901773;29;20048;-77
2022/10/26 09:53:25;;;;;;;18.98;8.65;;;;;;;;;;4901676;29;20552;-77
2022/10/26 09:56:01;;;;;;;24.30;7.55;;;;;;;;;;4901669;29;20511;-77
2022/10/26 09:58:29;;;;;;;20.17;8.02;;;;;;;;;;4901670;29;20076;-78
2022/10/26 10:00:55;;;;;;;18.00;7.72;;;;;;;;;;4901578;29;20510;-77
2022/10/26 10:03:25;;;;;;;17.98;7.53;;;;;;;;;;4901547;29;20028;-77
2022/10/26 10:05:51;;;;;;;18.37;7.63;;;;;;;;;;4901816;29;20140;-77
2022/10/26 10:08:17;;;;;;;22.98;7.97;;;;;;;;;;4901722;29;20445;-78
2022/10/26 10:10:53;;;;;;;21.95;7.65;;;;;;;;;;4901251;29;20040;-79
2022/10/26 10:13:23;;;;;;;19.50;7.88;;;;;;;;;;4917419;29;20414;-77
2022/10/26 10:16:11;;;;;;;19.45;8.13;;;;;;;;;;4924003;29;20055;-77
2022/10/26 10:18:38;;;;;;;17.77;7.50;;;;;;;;;;4918306;29;20048;-77
2022/10/26 10:21:05;;;;;;;17.60;7.80;;;;;;;;;;4918787;29;20032;-77
2022/10/26 10:23:32;;;;;;;23.02;7.45;;;;;;;;;;4919775;29;20083;-76
2022/10/26 10:26:00;;;;;;;20.83;7.18;;;;;;;;;;4919405;29;20048;-73
2022/10/26 10:28:26;;;;;;;19.88;6.78;;;;;;;;;;4918046;29;20043;-76
2022/10/26 10:30:54;;;;;;;21.50;7.22;;;;;;;;;;4919826;29;20047;-78
2022/10/26 10:33:20;;;;;;;18.02;6.93;;;;;;;;;;4919395;29;20036;-78
2022/10/26 10:35:49;;;;;;;20.30;8.13;;;;;;;;;;4919013;29;20052;-78
2022/10/26 10:38:16;;;;;;;20.98;7.55;;;;;;;;;;4919570;29;20059;-78
2022/10/26 10:40:49;;;;;;;21.98;7.50;;;;;;;;;;4918807;29;20067;-79
2022/10/26 10:43:15;;;;;;;15.23;6.20;;;;;;;;;;4919198;29;20051;-76
2022/10/26 10:45:47;;;;;;;21.45;7.35;;;;;;;;;;4918570;29;20150;-74
2022/10/26 10:48:15;;;;;;;18.30;6.18;;;;;;;;;;4918701;29;20175;-75
2022/10/26 10:50:50;;;;;;;20.17;6.63;;;;;;;;;;4919145;29;20506;-74
2022/10/26 10:53:18;;;;;;;18.42;6.70;;;;;;;;;;4919963;29;20063;-74
2022/10/26 10:55:57;;;;;;;13.85;6.93;;;;;;;;;;4918948;29;20048;-74
2022/10/26 10:58:38;;;;;;;20.63;7.05;;;;;;;;;;4919153;29;20052;-74
2022/10/26 11:01:05;;;;;;;19.08;6.68;;;;;;;;;;4918797;29;20403;-75
2022/10/26 11:03:47;;;;;;;23.02;7.10;;;;;;;;;;4919023;29;20119;-75
2022/10/26 11:06:22;;;;;;;21.67;6.50;;;;;;;;;;4918845;29;20123;-74
2022/10/26 11:08:57;;;;;;;18.58;6.93;;;;;;;;;;4919058;29;20638;-74
2022/10/26 11:11:26;;;;;;;25.08;7.35;;;;;;;;;;4918798;29;20091;-75
2022/10/26 11:14:11;;;;;;;18.80;7.25;;;;;;;;;;4918838;29;20487;-74
2022/10/26 11:16:40;;;;;;;14.52;6.72;;;;;;;;;;4918459;29;20138;-74
2022/10/26 11:19:17;;;;;;;18.17;6.55;;;;;;;;;;4919230;29;20126;-74
2022/10/26 11:21:45;;;;;;;19.17;6.88;;;;;;;;;;4918862;29;20040;-75
2022/10/26 11:24:22;;;;;;;18.13;6.68;;;;;;;;;;4918552;29;20123;-75
2022/10/26 11:26:52;;;;;;;16.40;6.90;;;;;;;;;;4918566;29;20044;-74
2022/10/26 11:29:25;;;;;;;20.73;6.97;;;;;;;;;;4918765;29;20051;-74
2022/10/26 11:31:54;;;;;;;19.00;7.13;;;;;;;;;;4918359;29;20131;-74
2022/10/26 11:34:33;;;;;;;13.95;7.18;;;;;;;;;;4918209;29;20054;-74
2022/10/26 11:37:03;;;;;;;21.60;6.93;;;;;;;;;;4918592;29;20495;-75
2022/10/26 11:39:44;;;;;;;17.40;6.40;;;;;;;;;;4917983;29;20092;-77
2022/10/26 11:42:33;;;;;;;16.77;6.47;;;;;;;;;;4928260;29;20047;-77
2022/10/26 11:45:11;;;;;;;14.52;6.18;;;;;;;;;;4893906;29;20492;-76
2022/10/26 11:47:43;;;;;;;28.30;14.32;;;;;;;;;;4898849;29;20043;-75
2022/10/26 11:50:18;;;;;;;24.50;10.27;;;;;;;;;;4898949;29;20052;-76
2022/10/26 11:52:47;;;;;;;16.45;7.15;;;;;;;;;;4899094;29;20051;-76
2022/10/26 11:55:13;;;;;;;19.65;6.65;;;;;;;;;;4898848;29;20139;-74
2022/10/26 11:57:40;;;;;;;20.52;6.88;;;;;;;;;;4898774;29;20469;-74
2022/10/26 12:00:07;;;;;;;17.45;7.50;;;;;;;;;;4898547;29;20079;-74
2022/10/26 12:02:38;;;;;;;24.98;7.88;;;;;;;;;;4898457;29;20044;-74
2022/10/26 12:05:33;;;;;;;17.35;7.20;;;;;;;;;;4899481;29;20052;-75
2022/10/26 12:08:01;;;;;;;14.10;7.30;;;;;;;;;;4899632;29;20048;-75
2022/10/26 12:10:27;;;;;;;23.00;7.88;;;;;;;;;;4899236;29;20572;-75
2022/10/26 12:12:53;;;;;;;22.23;9.93;;;;;;;;;;4899306;29;20540;-73
2022/10/26 12:15:28;;;;;;;25.48;9.88;;;;;;;;;;4899196;29;20052;-76
2022/10/26 12:18:13;;;;;;;25.80;8.23;;;;;;;;;;4899117;29;20179;-76
2022/10/26 12:21:11;;;;;;;13.48;7.32;;;;;;;;;;4899034;29;20107;-76
2022/10/26 12:23:38;;;;;;;22.40;8.23;;;;;;;;;;4887610;29;20048;-76
2022/10/26 12:26:23;;;;;;;21.27;8.60;;;;;;;;;;4898637;29;20044;-76
2022/10/26 12:29:09;;;;;;;26.55;8.70;;;;;;;;;;4897759;29;20080;-75
2022/10/26 12:31:35;;;;;;;14.15;6.88;;;;;;;;;;4887088;29;20048;-76
2022/10/26 12:34:02;;;;;;;15.90;6.25;;;;;;;;;;4898064;29;20048;-76
2022/10/26 12:36:58;;;;;;;19.52;6.28;;;;;;;;;;4897643;29;20048;-76
2022/10/26 12:39:44;;;;;;;19.98;6.45;;;;;;;;;;4892940;29;20155;-75
2022/10/26 12:42:28;;;;;;;14.70;5.88;;;;;;;;;;4898116;29;20163;-75
2022/10/26 12:44:54;;;;;;;18.38;5.63;;;;;;;;;;4898483;29;20044;-75
2022/10/26 12:47:29;;;;;;;17.33;5.50;;;;;;;;;;4898775;29;20047;-75
2022/10/26 12:50:18;;;;;;;16.80;6.28;;;;;;;;;;4899254;29;20047;-75
2022/10/26 12:52:55;;;;;;;17.63;5.78;;;;;;;;;;4898699;29;20115;-75
2022/10/26 12:55:21;;;;;;;18.17;6.15;;;;;;;;;;4898704;29;20048;-75
2022/10/26 12:57:53;;;;;;;22.48;6.32;;;;;;;;;;4899135;29;20488;-75
2022/10/26 13:00:26;;;;;;;24.50;6.30;;;;;;;;;;4899011;29;20040;-75
2022/10/26 13:02:52;;;;;;;23.75;6.38;;;;;;;;;;4899186;29;20484;-75
2022/10/26 13:05:21;;;;;;;21.80;7.35;;;;;;;;;;4898624;29;20049;-75
2022/10/26 13:07:48;;;;;;;17.98;5.95;;;;;;;;;;4899100;29;20041;-75
2022/10/26 13:10:14;;;;;;;39.67;26.17;;;;;;;;;;4898844;29;20136;-75
2022/10/26 13:12:49;;;;;;;20.10;9.65;;;;;;;;;;4898798;29;20051;-76
2022/10/26 13:15:18;;;;;;;35.97;23.05;;;;;;;;;;4902067;29;20365;-75
2022/10/26 13:17:53;;;;;;;32.75;18.75;;;;;;;;;;4902403;29;20045;-75
2022/10/26 13:20:19;;;;;;;30.00;13.80;;;;;;;;;;4901773;29;20168;-75
2022/10/26 13:22:46;;;;;;;38.30;22.27;;;;;;;;;;4902066;29;20526;-75
2022/10/26 13:25:20;;;;;;;37.33;24.90;;;;;;;;;;4901851;29;20045;-75
2022/10/26 13:27:57;;;;;;;18.55;7.65;;;;;;;;;;4901647;29;20059;-75
2022/10/26 13:30:32;;;;;;;25.92;6.32;;;;;;;;;;4901347;29;20040;-75
2022/10/26 13:32:59;;;;;;;19.73;6.05;;;;;;;;;;4901860;29;20128;-76
2022/10/26 13:35:25;;;;;;;24.85;7.65;;;;;;;;;;4901744;29;20044;-75
2022/10/26 13:37:53;;;;;;;14.48;5.47;;;;;;;;;;4901504;29;20088;-75
2022/10/26 13:40:27;;;;;;;26.35;6.97;;;;;;;;;;4901298;29;20060;-75
2022/10/26 13:42:57;;;;;;;14.43;6.03;;;;;;;;;;4901697;29;20516;-75
2022/10/26 13:45:42;;;;;;;17.50;5.90;;;;;;;;;;4901829;29;20135;-75
2022/10/26 13:48:20;;;;;;;20.30;6.63;;;;;;;;;;4901615;29;20123;-75
2022/10/26 13:50:52;;;;;;;14.85;5.43;;;;;;;;;;4901823;29;20155;-75
2022/10/26 13:53:28;;;;;;;13.13;5.88;;;;;;;;;;4901484;29;20044;-75
2022/10/26 13:56:01;;;;;;;14.30;6.18;;;;;;;;;;4901683;29;20140;-76
2022/10/26 13:58:33;;;;;;;58.53;46.42;;;;;;;;;;4902242;29;20119;-75
2022/10/26 14:01:09;;;;;;;44.13;27.35;;;;;;;;;;4901555;29;20096;-75
2022/10/26 14:03:35;;;;;;;61.65;44.13;;;;;;;;;;4901239;29;20043;-75
2022/10/26 14:06:23;;;;;;;20.50;7.15;;;;;;;;;;4901812;29;20048;-75
2022/10/26 14:08:50;;;;;;;32.38;18.48;;;;;;;;;;4901912;29;20072;-75
2022/10/26 14:11:19;;;;;;;59.05;39.13;;;;;;;;;;4901293;29;20048;-75
2022/10/26 14:13:46;;;;;;;82.53;61.95;;;;;;;;;;4901296;29;20037;-75
2022/10/26 14:16:15;;;;;;;36.40;22.70;;;;;;;;;;4901283;29;20060;-75
2022/10/26 14:18:41;;;;;;;16.50;7.40;;;;;;;;;;4901608;29;20111;-75
2022/10/26 14:21:12;;;;;;;17.20;6.25;;;;;;;;;;4901301;29;20048;-75
2022/10/26 14:24:06;;;;;;;18.10;6.28;;;;;;;;;;4900649;29;20087;-75
2022/10/26 14:26:41;;;;;;;18.02;6.57;;;;;;;;;;4902009;29;20176;-75
2022/10/26 14:29:18;;;;;;;18.15;5.70;;;;;;;;;;4900822;29;20124;-75
2022/10/26 14:31:44;;;;;;;20.98;6.13;;;;;;;;;;4901085;29;20044;-75
2022/10/26 14:34:11;;;;;;;16.63;5.57;;;;;;;;;;4901026;29;20487;-75
2022/10/26 14:36:56;;;;;;;22.38;6.75;;;;;;;;;;4901198;29;20056;-75
2022/10/26 14:39:22;;;;;;;20.13;6.28;;;;;;;;;;4901127;29;20044;-75
2022/10/26 14:41:49;;;;;;;24.27;6.47;;;;;;;;;;4900239;29;20065;-75